sensor_id;sensor_type;location;lat;lon;timestamp;P1;durP1;ratioP1;P2;durP2;ratioP2
22131;SDS011;11232;51.748;19.390;2023-04-01T00:02:20;22.07;;;13.03;;
22131;SDS011;11232;51.748;19.390;2023-04-01T00:04:46;24.50;;;13.70;;
22131;SDS011;11232;51.748;19.390;2023-04-01T00:07:12;25.10;;;14.00;;
22131;SDS011;11232;51.748;19.390;2023-04-01T00:09:38;28.53;;;14.07;;
22131;SDS011;11232;51.748;19.390;2023-04-01T00:12:04;25.00;;;13.10;;
22131;SDS011;11232;51.748;19.390;2023-04-01T00:14:30;25.30;;;12.83;;
22131;SDS011;11232;51.748;19.390;2023-04-01T00:16:56;22.77;;;12.50;;
22131;SDS011;11232;51.748;19.390;2023-04-01T00:19:22;21.83;;;12.53;;
22131;SDS011;11232;51.748;19.390;2023-04-01T00:21:48;26.10;;;12.63;;
22131;SDS011;11232;51.748;19.390;2023-04-01T00:24:14;23.70;;;13.23;;
22131;SDS011;11232;51.748;19.390;2023-04-01T00:26:40;27.87;;;13.83;;
22131;SDS011;11232;51.748;19.390;2023-04-01T00:29:07;22.23;;;13.20;;
22131;SDS011;11232;51.748;19.390;2023-04-01T00:31:33;23.40;;;12.20;;
22131;SDS011;11232;51.748;19.390;2023-04-01T00:33:59;26.03;;;13.30;;
22131;SDS011;11232;51.748;19.390;2023-04-01T00:36:25;23.33;;;13.20;;
22131;SDS011;11232;51.748;19.390;2023-04-01T00:38:51;26.20;;;14.67;;
22131;SDS011;11232;51.748;19.390;2023-04-01T00:41:18;26.13;;;14.53;;
22131;SDS011;11232;51.748;19.390;2023-04-01T00:43:46;28.70;;;13.80;;
22131;SDS011;11232;51.748;19.390;2023-04-01T00:46:13;22.27;;;13.37;;
22131;SDS011;11232;51.748;19.390;2023-04-01T00:48:40;29.70;;;12.90;;
22131;SDS011;11232;51.748;19.390;2023-04-01T00:51:09;25.63;;;14.23;;
22131;SDS011;11232;51.748;19.390;2023-04-01T00:53:38;29.40;;;14.77;;
22131;SDS011;11232;51.748;19.390;2023-04-01T00:56:18;25.97;;;14.60;;
22131;SDS011;11232;51.748;19.390;2023-04-01T00:58:50;24.90;;;14.37;;
22131;SDS011;11232;51.748;19.390;2023-04-01T01:01:17;28.13;;;14.83;;
22131;SDS011;11232;51.748;19.390;2023-04-01T01:03:44;28.30;;;15.30;;
22131;SDS011;11232;51.748;19.390;2023-04-01T01:06:19;25.27;;;14.63;;
22131;SDS011;11232;51.748;19.390;2023-04-01T01:09:06;26.67;;;14.23;;
22131;SDS011;11232;51.748;19.390;2023-04-01T01:11:39;28.50;;;14.50;;
22131;SDS011;11232;51.748;19.390;2023-04-01T01:16:33;26.90;;;15.13;;
22131;SDS011;11232;51.748;19.390;2023-04-01T01:19:09;25.37;;;14.30;;
22131;SDS011;11232;51.748;19.390;2023-04-01T01:22:03;26.80;;;14.80;;
22131;SDS011;11232;51.748;19.390;2023-04-01T01:24:50;26.53;;;14.80;;
22131;SDS011;11232;51.748;19.390;2023-04-01T01:27:19;28.27;;;15.53;;
22131;SDS011;11232;51.748;19.390;2023-04-01T01:37:52;27.00;;;15.50;;
22131;SDS011;11232;51.748;19.390;2023-04-01T01:40:19;28.33;;;15.90;;
22131;SDS011;11232;51.748;19.390;2023-04-01T01:42:47;28.83;;;16.20;;
22131;SDS011;11232;51.748;19.390;2023-04-01T01:45:14;29.33;;;16.03;;
22131;SDS011;11232;51.748;19.390;2023-04-01T01:47:43;29.57;;;16.03;;
22131;SDS011;11232;51.748;19.390;2023-04-01T01:50:09;34.33;;;17.87;;
22131;SDS011;11232;51.748;19.390;2023-04-01T01:52:36;35.17;;;17.93;;
22131;SDS011;11232;51.748;19.390;2023-04-01T01:55:02;33.10;;;17.97;;
22131;SDS011;11232;51.748;19.390;2023-04-01T01:57:30;42.30;;;20.93;;
22131;SDS011;11232;51.748;19.390;2023-04-01T02:00:05;42.60;;;20.87;;
22131;SDS011;11232;51.748;19.390;2023-04-01T02:02:38;42.23;;;21.17;;
22131;SDS011;11232;51.748;19.390;2023-04-01T02:05:05;41.13;;;20.00;;
22131;SDS011;11232;51.748;19.390;2023-04-01T02:07:31;42.37;;;20.70;;
22131;SDS011;11232;51.748;19.390;2023-04-01T02:09:59;44.07;;;20.77;;
22131;SDS011;11232;51.748;19.390;2023-04-01T02:12:25;43.77;;;21.30;;
22131;SDS011;11232;51.748;19.390;2023-04-01T02:14:53;46.03;;;20.87;;
22131;SDS011;11232;51.748;19.390;2023-04-01T02:17:22;45.50;;;21.03;;
22131;SDS011;11232;51.748;19.390;2023-04-01T02:19:50;43.43;;;21.73;;
22131;SDS011;11232;51.748;19.390;2023-04-01T02:22:19;43.83;;;21.20;;
22131;SDS011;11232;51.748;19.390;2023-04-01T02:24:46;44.57;;;21.30;;
22131;SDS011;11232;51.748;19.390;2023-04-01T02:27:12;40.83;;;20.23;;
22131;SDS011;11232;51.748;19.390;2023-04-01T02:29:38;35.93;;;18.17;;
22131;SDS011;11232;51.748;19.390;2023-04-01T02:32:04;42.10;;;19.87;;
22131;SDS011;11232;51.748;19.390;2023-04-01T02:34:31;36.33;;;18.03;;
22131;SDS011;11232;51.748;19.390;2023-04-01T02:36:58;37.80;;;17.80;;
22131;SDS011;11232;51.748;19.390;2023-04-01T02:39:24;33.07;;;16.77;;
22131;SDS011;11232;51.748;19.390;2023-04-01T02:41:51;28.20;;;16.43;;
22131;SDS011;11232;51.748;19.390;2023-04-01T02:44:17;31.37;;;15.80;;
22131;SDS011;11232;51.748;19.390;2023-04-01T02:46:43;34.03;;;16.57;;
22131;SDS011;11232;51.748;19.390;2023-04-01T02:49:09;30.80;;;15.10;;
22131;SDS011;11232;51.748;19.390;2023-04-01T02:51:35;27.17;;;14.87;;
22131;SDS011;11232;51.748;19.390;2023-04-01T02:54:01;28.27;;;15.03;;
22131;SDS011;11232;51.748;19.390;2023-04-01T02:56:27;27.40;;;13.40;;
22131;SDS011;11232;51.748;19.390;2023-04-01T02:58:53;25.80;;;13.87;;
22131;SDS011;11232;51.748;19.390;2023-04-01T03:01:19;28.27;;;14.57;;
22131;SDS011;11232;51.748;19.390;2023-04-01T03:03:46;33.00;;;16.13;;
22131;SDS011;11232;51.748;19.390;2023-04-01T03:06:12;38.40;;;17.00;;
22131;SDS011;11232;51.748;19.390;2023-04-01T03:08:38;31.47;;;16.30;;
22131;SDS011;11232;51.748;19.390;2023-04-01T03:11:04;27.30;;;14.97;;
22131;SDS011;11232;51.748;19.390;2023-04-01T03:13:30;28.43;;;14.20;;
22131;SDS011;11232;51.748;19.390;2023-04-01T03:15:56;22.83;;;13.10;;
22131;SDS011;11232;51.748;19.390;2023-04-01T03:18:22;28.33;;;13.23;;
22131;SDS011;11232;51.748;19.390;2023-04-01T03:20:48;25.83;;;13.13;;
22131;SDS011;11232;51.748;19.390;2023-04-01T03:23:14;25.20;;;13.73;;
22131;SDS011;11232;51.748;19.390;2023-04-01T03:25:42;24.43;;;12.97;;
22131;SDS011;11232;51.748;19.390;2023-04-01T03:28:08;25.20;;;12.83;;
22131;SDS011;11232;51.748;19.390;2023-04-01T03:30:35;26.70;;;12.90;;
22131;SDS011;11232;51.748;19.390;2023-04-01T03:33:01;23.40;;;13.07;;
22131;SDS011;11232;51.748;19.390;2023-04-01T03:35:27;25.37;;;13.13;;
22131;SDS011;11232;51.748;19.390;2023-04-01T03:37:53;25.57;;;12.97;;
22131;SDS011;11232;51.748;19.390;2023-04-01T03:40:20;27.03;;;15.07;;
22131;SDS011;11232;51.748;19.390;2023-04-01T03:42:46;34.00;;;14.37;;
22131;SDS011;11232;51.748;19.390;2023-04-01T03:45:12;27.10;;;15.17;;
22131;SDS011;11232;51.748;19.390;2023-04-01T03:47:39;29.53;;;14.47;;
22131;SDS011;11232;51.748;19.390;2023-04-01T03:50:05;29.87;;;15.83;;
22131;SDS011;11232;51.748;19.390;2023-04-01T03:52:31;24.97;;;13.53;;
22131;SDS011;11232;51.748;19.390;2023-04-01T03:54:57;27.97;;;14.87;;
22131;SDS011;11232;51.748;19.390;2023-04-01T03:57:23;27.67;;;14.73;;
22131;SDS011;11232;51.748;19.390;2023-04-01T03:59:49;24.47;;;13.77;;
22131;SDS011;11232;51.748;19.390;2023-04-01T04:02:16;25.93;;;14.83;;
22131;SDS011;11232;51.748;19.390;2023-04-01T04:04:42;29.00;;;15.53;;
22131;SDS011;11232;51.748;19.390;2023-04-01T04:07:08;26.87;;;14.90;;
22131;SDS011;11232;51.748;19.390;2023-04-01T04:09:34;31.47;;;15.43;;
22131;SDS011;11232;51.748;19.390;2023-04-01T04:12:00;29.30;;;15.33;;
22131;SDS011;11232;51.748;19.390;2023-04-01T04:14:26;26.67;;;14.20;;
22131;SDS011;11232;51.748;19.390;2023-04-01T04:16:52;29.37;;;15.23;;
22131;SDS011;11232;51.748;19.390;2023-04-01T04:19:19;28.23;;;16.07;;
22131;SDS011;11232;51.748;19.390;2023-04-01T04:21:45;29.90;;;15.70;;
22131;SDS011;11232;51.748;19.390;2023-04-01T04:24:11;27.43;;;15.03;;
22131;SDS011;11232;51.748;19.390;2023-04-01T04:26:37;24.87;;;13.80;;
22131;SDS011;11232;51.748;19.390;2023-04-01T04:29:03;23.13;;;12.70;;
22131;SDS011;11232;51.748;19.390;2023-04-01T04:31:29;25.77;;;13.47;;
22131;SDS011;11232;51.748;19.390;2023-04-01T04:33:55;23.93;;;12.87;;
22131;SDS011;11232;51.748;19.390;2023-04-01T04:36:21;23.80;;;12.83;;
22131;SDS011;11232;51.748;19.390;2023-04-01T04:38:47;23.17;;;13.10;;
22131;SDS011;11232;51.748;19.390;2023-04-01T04:41:17;19.70;;;11.47;;
22131;SDS011;11232;51.748;19.390;2023-04-01T04:43:48;19.90;;;11.33;;
22131;SDS011;11232;51.748;19.390;2023-04-01T04:46:15;22.33;;;11.93;;
22131;SDS011;11232;51.748;19.390;2023-04-01T04:48:41;23.63;;;12.60;;
22131;SDS011;11232;51.748;19.390;2023-04-01T04:51:11;21.93;;;11.90;;
22131;SDS011;11232;51.748;19.390;2023-04-01T04:53:38;23.47;;;12.73;;
22131;SDS011;11232;51.748;19.390;2023-04-01T04:56:04;22.13;;;12.37;;
22131;SDS011;11232;51.748;19.390;2023-04-01T04:58:30;21.47;;;12.57;;
22131;SDS011;11232;51.748;19.390;2023-04-01T05:00:56;24.23;;;12.87;;
22131;SDS011;11232;51.748;19.390;2023-04-01T05:03:22;26.83;;;13.23;;
22131;SDS011;11232;51.748;19.390;2023-04-01T05:05:49;24.13;;;11.77;;
22131;SDS011;11232;51.748;19.390;2023-04-01T05:08:15;20.63;;;11.23;;
22131;SDS011;11232;51.748;19.390;2023-04-01T05:10:41;26.67;;;11.87;;
22131;SDS011;11232;51.748;19.390;2023-04-01T05:13:07;20.03;;;11.40;;
22131;SDS011;11232;51.748;19.390;2023-04-01T05:15:34;24.07;;;12.07;;
22131;SDS011;11232;51.748;19.390;2023-04-01T05:18:00;20.83;;;11.07;;
22131;SDS011;11232;51.748;19.390;2023-04-01T05:20:26;25.87;;;11.80;;
22131;SDS011;11232;51.748;19.390;2023-04-01T05:22:56;21.07;;;11.07;;
22131;SDS011;11232;51.748;19.390;2023-04-01T05:25:22;19.90;;;11.43;;
22131;SDS011;11232;51.748;19.390;2023-04-01T05:27:48;24.77;;;10.77;;
22131;SDS011;11232;51.748;19.390;2023-04-01T05:30:14;23.83;;;11.33;;
22131;SDS011;11232;51.748;19.390;2023-04-01T05:32:40;19.33;;;10.87;;
22131;SDS011;11232;51.748;19.390;2023-04-01T05:35:06;18.23;;;10.13;;
22131;SDS011;11232;51.748;19.390;2023-04-01T05:37:35;18.83;;;9.93;;
22131;SDS011;11232;51.748;19.390;2023-04-01T05:40:01;17.57;;;9.47;;
22131;SDS011;11232;51.748;19.390;2023-04-01T05:42:27;20.73;;;9.43;;
22131;SDS011;11232;51.748;19.390;2023-04-01T05:44:53;19.87;;;9.57;;
22131;SDS011;11232;51.748;19.390;2023-04-01T05:47:20;13.53;;;8.53;;
22131;SDS011;11232;51.748;19.390;2023-04-01T05:49:46;17.90;;;9.20;;
22131;SDS011;11232;51.748;19.390;2023-04-01T05:52:12;18.83;;;8.97;;
22131;SDS011;11232;51.748;19.390;2023-04-01T05:54:38;17.20;;;8.77;;
22131;SDS011;11232;51.748;19.390;2023-04-01T05:57:04;21.10;;;9.10;;
22131;SDS011;11232;51.748;19.390;2023-04-01T05:59:30;18.13;;;8.47;;
22131;SDS011;11232;51.748;19.390;2023-04-01T06:01:57;18.43;;;8.53;;
22131;SDS011;11232;51.748;19.390;2023-04-01T06:04:23;16.10;;;8.53;;
22131;SDS011;11232;51.748;19.390;2023-04-01T06:06:50;19.27;;;9.50;;
22131;SDS011;11232;51.748;19.390;2023-04-01T06:09:19;16.23;;;8.63;;
22131;SDS011;11232;51.748;19.390;2023-04-01T06:12:22;14.67;;;8.40;;
22131;SDS011;11232;51.748;19.390;2023-04-01T06:39:36;13.83;;;7.73;;
22131;SDS011;11232;51.748;19.390;2023-04-01T06:57:42;17.17;;;8.40;;
22131;SDS011;11232;51.748;19.390;2023-04-01T07:00:19;14.83;;;7.73;;
22131;SDS011;11232;51.748;19.390;2023-04-01T07:02:49;16.33;;;8.77;;
22131;SDS011;11232;51.748;19.390;2023-04-01T07:05:20;14.90;;;9.03;;
22131;SDS011;11232;51.748;19.390;2023-04-01T07:07:50;18.53;;;9.60;;
22131;SDS011;11232;51.748;19.390;2023-04-01T07:10:35;19.40;;;8.93;;
22131;SDS011;11232;51.748;19.390;2023-04-01T07:13:06;18.27;;;8.67;;
22131;SDS011;11232;51.748;19.390;2023-04-01T07:15:36;18.27;;;9.30;;
22131;SDS011;11232;51.748;19.390;2023-04-01T07:18:25;16.87;;;8.67;;
22131;SDS011;11232;51.748;19.390;2023-04-01T07:20:54;17.60;;;7.63;;
22131;SDS011;11232;51.748;19.390;2023-04-01T07:23:22;15.13;;;8.07;;
22131;SDS011;11232;51.748;19.390;2023-04-01T07:25:53;15.93;;;8.50;;
22131;SDS011;11232;51.748;19.390;2023-04-01T07:28:21;14.57;;;7.47;;
22131;SDS011;11232;51.748;19.390;2023-04-01T07:43:22;14.03;;;7.77;;
22131;SDS011;11232;51.748;19.390;2023-04-01T07:48:39;14.80;;;7.93;;
22131;SDS011;11232;51.748;19.390;2023-04-01T07:59:02;13.53;;;8.20;;
22131;SDS011;11232;51.748;19.390;2023-04-01T08:04:14;11.27;;;6.73;;
22131;SDS011;11232;51.748;19.390;2023-04-01T08:14:22;14.13;;;6.77;;
22131;SDS011;11232;51.748;19.390;2023-04-01T08:19:26;11.70;;;6.63;;
22131;SDS011;11232;51.748;19.390;2023-04-01T08:21:54;14.30;;;7.37;;
22131;SDS011;11232;51.748;19.390;2023-04-01T08:26:53;13.80;;;7.97;;
22131;SDS011;11232;51.748;19.390;2023-04-01T08:31:58;13.20;;;8.23;;
22131;SDS011;11232;51.748;19.390;2023-04-01T08:34:28;17.47;;;7.70;;
22131;SDS011;11232;51.748;19.390;2023-04-01T08:37:07;15.27;;;7.50;;
22131;SDS011;11232;51.748;19.390;2023-04-01T08:39:34;16.30;;;7.83;;
22131;SDS011;11232;51.748;19.390;2023-04-01T08:44:36;12.30;;;7.37;;
22131;SDS011;11232;51.748;19.390;2023-04-01T09:00:02;14.40;;;8.47;;
22131;SDS011;11232;51.748;19.390;2023-04-01T09:12:58;13.83;;;8.33;;
22131;SDS011;11232;51.748;19.390;2023-04-01T09:15:42;14.37;;;8.07;;
22131;SDS011;11232;51.748;19.390;2023-04-01T09:18:13;15.40;;;7.73;;
22131;SDS011;11232;51.748;19.390;2023-04-01T09:28:28;16.03;;;8.40;;
22131;SDS011;11232;51.748;19.390;2023-04-01T09:33:38;9.87;;;6.43;;
22131;SDS011;11232;51.748;19.390;2023-04-01T09:41:47;8.70;;;6.53;;
22131;SDS011;11232;51.748;19.390;2023-04-01T09:44:18;10.07;;;6.40;;
22131;SDS011;11232;51.748;19.390;2023-04-01T09:54:47;10.03;;;6.63;;
22131;SDS011;11232;51.748;19.390;2023-04-01T09:57:22;11.13;;;6.80;;
22131;SDS011;11232;51.748;19.390;2023-04-01T10:08:10;9.40;;;6.60;;
22131;SDS011;11232;51.748;19.390;2023-04-01T10:13:26;10.83;;;7.00;;
22131;SDS011;11232;51.748;19.390;2023-04-01T10:16:13;9.40;;;6.40;;
22131;SDS011;11232;51.748;19.390;2023-04-01T10:21:23;9.77;;;6.03;;
22131;SDS011;11232;51.748;19.390;2023-04-01T10:36:58;4.93;;;3.70;;
22131;SDS011;11232;51.748;19.390;2023-04-01T10:39:37;4.63;;;3.10;;
22131;SDS011;11232;51.748;19.390;2023-04-01T10:47:12;6.18;;;3.47;;
22131;SDS011;11232;51.748;19.390;2023-04-01T10:57:41;9.97;;;4.97;;
22131;SDS011;11232;51.748;19.390;2023-04-01T11:02:59;8.23;;;5.20;;
22131;SDS011;11232;51.748;19.390;2023-04-01T11:26:51;7.30;;;2.47;;
22131;SDS011;11232;51.748;19.390;2023-04-01T11:34:42;4.27;;;2.60;;
22131;SDS011;11232;51.748;19.390;2023-04-01T11:42:20;4.57;;;3.50;;
22131;SDS011;11232;51.748;19.390;2023-04-01T11:44:52;3.40;;;2.93;;
22131;SDS011;11232;51.748;19.390;2023-04-01T11:50:26;5.60;;;3.57;;
22131;SDS011;11232;51.748;19.390;2023-04-01T12:04:00;4.70;;;3.30;;
22131;SDS011;11232;51.748;19.390;2023-04-01T12:09:12;3.58;;;2.60;;
22131;SDS011;11232;51.748;19.390;2023-04-01T12:19:39;2.87;;;2.40;;
22131;SDS011;11232;51.748;19.390;2023-04-01T12:54:22;5.63;;;3.73;;
22131;SDS011;11232;51.748;19.390;2023-04-01T12:57:14;5.97;;;4.33;;
22131;SDS011;11232;51.748;19.390;2023-04-01T13:10:57;5.50;;;3.58;;
22131;SDS011;11232;51.748;19.390;2023-04-01T13:13:39;5.68;;;3.85;;
22131;SDS011;11232;51.748;19.390;2023-04-01T13:34:36;5.95;;;4.50;;
22131;SDS011;11232;51.748;19.390;2023-04-01T13:42:47;8.17;;;5.00;;
22131;SDS011;11232;51.748;19.390;2023-04-01T13:45:17;11.93;;;5.40;;
22131;SDS011;11232;51.748;19.390;2023-04-01T13:53:18;9.97;;;6.07;;
22131;SDS011;11232;51.748;19.390;2023-04-01T14:08:36;12.73;;;7.00;;
22131;SDS011;11232;51.748;19.390;2023-04-01T14:24:32;11.37;;;6.30;;
22131;SDS011;11232;51.748;19.390;2023-04-01T14:40:19;13.13;;;7.47;;
22131;SDS011;11232;51.748;19.390;2023-04-01T14:52:49;14.63;;;7.77;;
22131;SDS011;11232;51.748;19.390;2023-04-01T14:55:25;14.00;;;7.57;;
22131;SDS011;11232;51.748;19.390;2023-04-01T14:58:27;14.43;;;8.13;;
22131;SDS011;11232;51.748;19.390;2023-04-01T15:03:17;18.60;;;10.13;;
22131;SDS011;11232;51.748;19.390;2023-04-01T15:06:08;18.00;;;10.33;;
22131;SDS011;11232;51.748;19.390;2023-04-01T15:08:42;19.63;;;10.10;;
22131;SDS011;11232;51.748;19.390;2023-04-01T15:13:56;22.63;;;12.03;;
22131;SDS011;11232;51.748;19.390;2023-04-01T15:16:36;23.00;;;10.97;;
22131;SDS011;11232;51.748;19.390;2023-04-01T15:34:32;23.70;;;11.47;;
22131;SDS011;11232;51.748;19.390;2023-04-01T15:37:08;20.57;;;10.93;;
22131;SDS011;11232;51.748;19.390;2023-04-01T15:39:42;26.73;;;12.30;;
22131;SDS011;11232;51.748;19.390;2023-04-01T15:42:23;23.37;;;11.00;;
22131;SDS011;11232;51.748;19.390;2023-04-01T15:47:32;22.73;;;11.57;;
22131;SDS011;11232;51.748;19.390;2023-04-01T15:50:12;20.73;;;10.87;;
22131;SDS011;11232;51.748;19.390;2023-04-01T15:58:04;23.30;;;12.00;;
22131;SDS011;11232;51.748;19.390;2023-04-01T16:13:45;20.10;;;10.70;;
22131;SDS011;11232;51.748;19.390;2023-04-01T16:16:21;19.90;;;10.47;;
22131;SDS011;11232;51.748;19.390;2023-04-01T16:18:54;25.10;;;11.97;;
22131;SDS011;11232;51.748;19.390;2023-04-01T16:24:12;21.10;;;11.17;;
22131;SDS011;11232;51.748;19.390;2023-04-01T16:26:44;22.70;;;10.93;;
22131;SDS011;11232;51.748;19.390;2023-04-01T16:29:24;18.70;;;9.60;;
22131;SDS011;11232;51.748;19.390;2023-04-01T16:31:54;20.97;;;11.23;;
22131;SDS011;11232;51.748;19.390;2023-04-01T16:34:30;21.57;;;11.10;;
22131;SDS011;11232;51.748;19.390;2023-04-01T16:37:04;21.27;;;10.87;;
22131;SDS011;11232;51.748;19.390;2023-04-01T16:44:54;25.77;;;12.50;;
22131;SDS011;11232;51.748;19.390;2023-04-01T16:47:29;26.23;;;12.40;;
22131;SDS011;11232;51.748;19.390;2023-04-01T16:49:58;25.67;;;12.63;;
22131;SDS011;11232;51.748;19.390;2023-04-01T16:55:18;29.80;;;14.13;;
22131;SDS011;11232;51.748;19.390;2023-04-01T16:57:50;34.40;;;15.40;;
22131;SDS011;11232;51.748;19.390;2023-04-01T17:00:19;32.57;;;16.20;;
22131;SDS011;11232;51.748;19.390;2023-04-01T17:02:49;37.53;;;18.17;;
22131;SDS011;11232;51.748;19.390;2023-04-01T17:05:18;35.97;;;17.33;;
22131;SDS011;11232;51.748;19.390;2023-04-01T17:18:09;31.10;;;14.87;;
22131;SDS011;11232;51.748;19.390;2023-04-01T17:20:42;32.47;;;14.77;;
22131;SDS011;11232;51.748;19.390;2023-04-01T17:23:44;34.17;;;16.50;;
22131;SDS011;11232;51.748;19.390;2023-04-01T17:28:45;38.67;;;16.63;;
22131;SDS011;11232;51.748;19.390;2023-04-01T17:36:25;35.73;;;17.10;;
22131;SDS011;11232;51.748;19.390;2023-04-01T17:49:23;40.50;;;17.97;;
22131;SDS011;11232;51.748;19.390;2023-04-01T17:52:01;42.07;;;17.63;;
22131;SDS011;11232;51.748;19.390;2023-04-01T17:54:41;37.10;;;17.60;;
22131;SDS011;11232;51.748;19.390;2023-04-01T17:57:20;34.07;;;15.97;;
22131;SDS011;11232;51.748;19.390;2023-04-01T17:59:54;38.00;;;16.57;;
22131;SDS011;11232;51.748;19.390;2023-04-01T18:05:05;34.30;;;16.60;;
22131;SDS011;11232;51.748;19.390;2023-04-01T18:10:27;44.30;;;19.57;;
22131;SDS011;11232;51.748;19.390;2023-04-01T18:25:38;44.23;;;20.13;;
22131;SDS011;11232;51.748;19.390;2023-04-01T18:30:31;48.13;;;20.73;;
22131;SDS011;11232;51.748;19.390;2023-04-01T18:33:05;44.40;;;21.00;;
22131;SDS011;11232;51.748;19.390;2023-04-01T18:35:48;48.53;;;20.20;;
22131;SDS011;11232;51.748;19.390;2023-04-01T18:38:24;49.30;;;20.00;;
22131;SDS011;11232;51.748;19.390;2023-04-01T18:45:59;40.53;;;18.60;;
22131;SDS011;11232;51.748;19.390;2023-04-01T18:48:35;43.90;;;19.37;;
22131;SDS011;11232;51.748;19.390;2023-04-01T18:53:51;47.13;;;20.87;;
22131;SDS011;11232;51.748;19.390;2023-04-01T18:59:03;49.77;;;19.03;;
22131;SDS011;11232;51.748;19.390;2023-04-01T19:01:36;49.83;;;21.43;;
22131;SDS011;11232;51.748;19.390;2023-04-01T19:04:37;51.67;;;20.87;;
22131;SDS011;11232;51.748;19.390;2023-04-01T19:06:57;44.53;;;19.27;;
22131;SDS011;11232;51.748;19.390;2023-04-01T19:09:32;45.70;;;19.90;;
22131;SDS011;11232;51.748;19.390;2023-04-01T19:17:42;39.37;;;17.83;;
22131;SDS011;11232;51.748;19.390;2023-04-01T19:25:28;34.27;;;17.57;;
22131;SDS011;11232;51.748;19.390;2023-04-01T19:28:02;33.63;;;16.57;;
22131;SDS011;11232;51.748;19.390;2023-04-01T19:30:45;31.47;;;16.00;;
22131;SDS011;11232;51.748;19.390;2023-04-01T19:38:50;35.30;;;17.77;;
22131;SDS011;11232;51.748;19.390;2023-04-01T19:41:39;35.93;;;17.60;;
22131;SDS011;11232;51.748;19.390;2023-04-01T19:47:20;32.00;;;16.23;;
22131;SDS011;11232;51.748;19.390;2023-04-01T19:52:33;34.97;;;16.83;;
22131;SDS011;11232;51.748;19.390;2023-04-01T19:55:09;38.30;;;17.27;;
22131;SDS011;11232;51.748;19.390;2023-04-01T19:58:02;33.83;;;15.87;;
22131;SDS011;11232;51.748;19.390;2023-04-01T20:00:34;31.23;;;15.53;;
22131;SDS011;11232;51.748;19.390;2023-04-01T20:03:05;38.50;;;17.50;;
22131;SDS011;11232;51.748;19.390;2023-04-01T20:05:45;32.73;;;16.20;;
22131;SDS011;11232;51.748;19.390;2023-04-01T20:16:12;24.13;;;13.13;;
22131;SDS011;11232;51.748;19.390;2023-04-01T20:18:56;23.00;;;13.03;;
22131;SDS011;11232;51.748;19.390;2023-04-01T20:26:48;20.97;;;12.17;;
22131;SDS011;11232;51.748;19.390;2023-04-01T20:31:42;29.47;;;13.40;;
22131;SDS011;11232;51.748;19.390;2023-04-01T20:39:34;23.97;;;12.50;;
22131;SDS011;11232;51.748;19.390;2023-04-01T20:44:52;28.40;;;13.67;;
22131;SDS011;11232;51.748;19.390;2023-04-01T20:47:44;27.23;;;13.67;;
22131;SDS011;11232;51.748;19.390;2023-04-01T20:53:12;30.30;;;13.77;;
22131;SDS011;11232;51.748;19.390;2023-04-01T20:59:01;28.00;;;13.17;;
22131;SDS011;11232;51.748;19.390;2023-04-01T21:03:29;27.57;;;13.83;;
22131;SDS011;11232;51.748;19.390;2023-04-01T21:08:40;23.03;;;12.10;;
22131;SDS011;11232;51.748;19.390;2023-04-01T21:17:03;21.87;;;12.10;;
22131;SDS011;11232;51.748;19.390;2023-04-01T21:22:11;18.97;;;9.97;;
22131;SDS011;11232;51.748;19.390;2023-04-01T21:53:53;16.10;;;7.80;;
22131;SDS011;11232;51.748;19.390;2023-04-01T22:04:40;14.33;;;7.80;;
22131;SDS011;11232;51.748;19.390;2023-04-01T22:07:18;11.03;;;6.73;;
22131;SDS011;11232;51.748;19.390;2023-04-01T22:09:48;12.97;;;7.67;;
22131;SDS011;11232;51.748;19.390;2023-04-01T22:12:19;13.07;;;7.03;;
22131;SDS011;11232;51.748;19.390;2023-04-01T22:20:39;14.30;;;8.77;;
22131;SDS011;11232;51.748;19.390;2023-04-01T22:22:55;19.07;;;9.03;;
22131;SDS011;11232;51.748;19.390;2023-04-01T22:28:11;17.80;;;9.40;;
22131;SDS011;11232;51.748;19.390;2023-04-01T22:33:07;21.97;;;9.97;;
22131;SDS011;11232;51.748;19.390;2023-04-01T22:35:41;21.13;;;10.10;;
22131;SDS011;11232;51.748;19.390;2023-04-01T22:40:42;20.13;;;10.90;;
22131;SDS011;11232;51.748;19.390;2023-04-01T22:43:43;20.20;;;11.40;;
22131;SDS011;11232;51.748;19.390;2023-04-01T22:48:59;19.40;;;10.40;;
22131;SDS011;11232;51.748;19.390;2023-04-01T22:51:40;21.53;;;10.67;;
22131;SDS011;11232;51.748;19.390;2023-04-01T22:56:43;12.17;;;7.37;;
22131;SDS011;11232;51.748;19.390;2023-04-01T23:01:40;13.20;;;6.40;;
22131;SDS011;11232;51.748;19.390;2023-04-01T23:04:07;11.23;;;6.60;;
22131;SDS011;11232;51.748;19.390;2023-04-01T23:06:37;11.13;;;7.13;;
22131;SDS011;11232;51.748;19.390;2023-04-01T23:09:19;10.77;;;6.30;;
22131;SDS011;11232;51.748;19.390;2023-04-01T23:12:08;11.63;;;5.73;;
22131;SDS011;11232;51.748;19.390;2023-04-01T23:14:37;11.33;;;6.17;;
22131;SDS011;11232;51.748;19.390;2023-04-01T23:22:06;11.43;;;5.90;;
22131;SDS011;11232;51.748;19.390;2023-04-01T23:24:38;11.33;;;6.10;;
22131;SDS011;11232;51.748;19.390;2023-04-01T23:29:39;9.93;;;5.50;;
22131;SDS011;11232;51.748;19.390;2023-04-01T23:32:14;12.47;;;6.27;;
22131;SDS011;11232;51.748;19.390;2023-04-01T23:34:46;9.80;;;5.17;;
22131;SDS011;11232;51.748;19.390;2023-04-01T23:37:13;8.63;;;5.10;;
22131;SDS011;11232;51.748;19.390;2023-04-01T23:39:44;12.70;;;6.20;;
22131;SDS011;11232;51.748;19.390;2023-04-01T23:42:15;8.40;;;5.50;;
22131;SDS011;11232;51.748;19.390;2023-04-01T23:44:44;10.23;;;5.83;;
22131;SDS011;11232;51.748;19.390;2023-04-01T23:47:18;11.23;;;6.30;;
22131;SDS011;11232;51.748;19.390;2023-04-01T23:49:45;14.23;;;8.00;;
22131;SDS011;11232;51.748;19.390;2023-04-01T23:54:44;14.90;;;9.07;;
22131;SDS011;11232;51.748;19.390;2023-04-01T23:57:15;17.13;;;8.97;;
22131;SDS011;11232;51.748;19.390;2023-04-01T23:59:41;16.37;;;8.90;;
